sensor_id;sensor_type;location;lat;lon;timestamp;temperature;humidity
23137;DHT22;11737;50.558;7.258;2022-12-29T00:00:29;13.00;99.90
23137;DHT22;11737;50.558;7.258;2022-12-29T00:02:57;13.00;99.90
23137;DHT22;11737;50.558;7.258;2022-12-29T00:05:24;13.00;99.90
23137;DHT22;11737;50.558;7.258;2022-12-29T00:07:52;13.00;99.90
23137;DHT22;11737;50.558;7.258;2022-12-29T00:10:19;13.00;99.90
23137;DHT22;11737;50.558;7.258;2022-12-29T00:12:47;13.00;99.90
23137;DHT22;11737;50.558;7.258;2022-12-29T00:15:32;13.00;99.90
23137;DHT22;11737;50.558;7.258;2022-12-29T00:18:06;12.90;99.90
23137;DHT22;11737;50.558;7.258;2022-12-29T00:20:36;12.90;99.90
23137;DHT22;11737;50.558;7.258;2022-12-29T00:23:22;12.90;99.90
23137;DHT22;11737;50.558;7.258;2022-12-29T00:29:17;12.90;99.90
23137;DHT22;11737;50.558;7.258;2022-12-29T00:32:06;13.00;99.90
23137;DHT22;11737;50.558;7.258;2022-12-29T00:34:51;13.00;99.90
23137;DHT22;11737;50.558;7.258;2022-12-29T00:37:40;12.90;99.90
23137;DHT22;11737;50.558;7.258;2022-12-29T00:40:25;12.90;99.90
23137;DHT22;11737;50.558;7.258;2022-12-29T00:43:11;13.00;99.90
23137;DHT22;11737;50.558;7.258;2022-12-29T00:45:56;13.00;99.90
23137;DHT22;11737;50.558;7.258;2022-12-29T00:48:24;13.00;99.90
23137;DHT22;11737;50.558;7.258;2022-12-29T00:51:09;13.00;99.90
23137;DHT22;11737;50.558;7.258;2022-12-29T00:53:37;13.00;99.90
23137;DHT22;11737;50.558;7.258;2022-12-29T00:56:04;13.00;99.90
23137;DHT22;11737;50.558;7.258;2022-12-29T00:58:32;13.00;99.90
23137;DHT22;11737;50.558;7.258;2022-12-29T01:01:07;13.00;99.90
23137;DHT22;11737;50.558;7.258;2022-12-29T01:03:36;13.00;99.90
23137;DHT22;11737;50.558;7.258;2022-12-29T01:06:08;13.10;99.90
23137;DHT22;11737;50.558;7.258;2022-12-29T01:08:50;13.10;99.90
23137;DHT22;11737;50.558;7.258;2022-12-29T01:11:19;13.20;99.90
23137;DHT22;11737;50.558;7.258;2022-12-29T01:13:47;13.10;99.90
23137;DHT22;11737;50.558;7.258;2022-12-29T01:16:14;13.20;99.90
23137;DHT22;11737;50.558;7.258;2022-12-29T01:18:42;13.30;99.90
23137;DHT22;11737;50.558;7.258;2022-12-29T01:21:09;13.20;99.90
23137;DHT22;11737;50.558;7.258;2022-12-29T01:23:37;13.20;99.90
23137;DHT22;11737;50.558;7.258;2022-12-29T01:29:01;13.20;99.90
23137;DHT22;11737;50.558;7.258;2022-12-29T01:31:29;13.20;99.90
23137;DHT22;11737;50.558;7.258;2022-12-29T01:33:56;13.20;99.90
23137;DHT22;11737;50.558;7.258;2022-12-29T01:36:24;13.20;99.90
23137;DHT22;11737;50.558;7.258;2022-12-29T01:38:51;13.20;99.90
23137;DHT22;11737;50.558;7.258;2022-12-29T01:41:19;13.10;99.90
23137;DHT22;11737;50.558;7.258;2022-12-29T01:43:58;13.00;99.90
23137;DHT22;11737;50.558;7.258;2022-12-29T01:46:41;13.10;99.90
23137;DHT22;11737;50.558;7.258;2022-12-29T01:49:21;13.00;99.90
23137;DHT22;11737;50.558;7.258;2022-12-29T01:54:46;13.00;99.90
23137;DHT22;11737;50.558;7.258;2022-12-29T01:57:11;13.00;99.90
23137;DHT22;11737;50.558;7.258;2022-12-29T01:59:42;13.10;99.90
23137;DHT22;11737;50.558;7.258;2022-12-29T02:02:10;13.20;99.90
23137;DHT22;11737;50.558;7.258;2022-12-29T02:04:40;13.20;99.90
23137;DHT22;11737;50.558;7.258;2022-12-29T02:07:19;13.30;99.90
23137;DHT22;11737;50.558;7.258;2022-12-29T02:09:46;13.40;99.90
23137;DHT22;11737;50.558;7.258;2022-12-29T02:12:13;13.40;99.90
23137;DHT22;11737;50.558;7.258;2022-12-29T02:14:41;13.30;99.90
23137;DHT22;11737;50.558;7.258;2022-12-29T02:20:11;13.30;99.90
23137;DHT22;11737;50.558;7.258;2022-12-29T02:36:58;13.10;99.90
23137;DHT22;11737;50.558;7.258;2022-12-29T02:39:27;13.10;99.90
23137;DHT22;11737;50.558;7.258;2022-12-29T02:41:58;13.10;99.90
23137;DHT22;11737;50.558;7.258;2022-12-29T02:47:26;13.10;99.90
23137;DHT22;11737;50.558;7.258;2022-12-29T02:52:54;13.20;99.90
23137;DHT22;11737;50.558;7.258;2022-12-29T02:54:59;13.10;99.90
23137;DHT22;11737;50.558;7.258;2022-12-29T02:57:30;13.10;99.90
23137;DHT22;11737;50.558;7.258;2022-12-29T03:00:04;13.10;99.90
23137;DHT22;11737;50.558;7.258;2022-12-29T03:08:23;13.10;99.90
23137;DHT22;11737;50.558;7.258;2022-12-29T03:11:10;13.10;99.90
23137;DHT22;11737;50.558;7.258;2022-12-29T03:13:45;13.10;99.90
23137;DHT22;11737;50.558;7.258;2022-12-29T03:19:40;13.10;99.90
23137;DHT22;11737;50.558;7.258;2022-12-29T03:22:11;13.20;99.90
23137;DHT22;11737;50.558;7.258;2022-12-29T03:25:06;13.10;99.90
23137;DHT22;11737;50.558;7.258;2022-12-29T03:30:33;13.10;99.90
23137;DHT22;11737;50.558;7.258;2022-12-29T03:33:04;13.10;99.90
23137;DHT22;11737;50.558;7.258;2022-12-29T03:35:34;13.00;99.90
23137;DHT22;11737;50.558;7.258;2022-12-29T03:40:53;13.00;99.90
23137;DHT22;11737;50.558;7.258;2022-12-29T03:43:22;13.10;99.90
23137;DHT22;11737;50.558;7.258;2022-12-29T03:45:50;13.00;99.90
23137;DHT22;11737;50.558;7.258;2022-12-29T03:48:17;13.10;99.90
23137;DHT22;11737;50.558;7.258;2022-12-29T03:50:45;13.10;99.90
23137;DHT22;11737;50.558;7.258;2022-12-29T03:53:12;13.00;99.90
23137;DHT22;11737;50.558;7.258;2022-12-29T03:55:40;13.00;99.90
23137;DHT22;11737;50.558;7.258;2022-12-29T03:58:07;13.10;99.90
23137;DHT22;11737;50.558;7.258;2022-12-29T04:00:35;13.10;99.90
23137;DHT22;11737;50.558;7.258;2022-12-29T04:03:02;13.00;99.90
23137;DHT22;11737;50.558;7.258;2022-12-29T04:05:30;13.00;99.90
23137;DHT22;11737;50.558;7.258;2022-12-29T04:07:57;13.00;99.90
23137;DHT22;11737;50.558;7.258;2022-12-29T04:10:25;13.10;99.90
23137;DHT22;11737;50.558;7.258;2022-12-29T04:12:52;13.10;99.90
23137;DHT22;11737;50.558;7.258;2022-12-29T04:15:20;13.00;99.90
23137;DHT22;11737;50.558;7.258;2022-12-29T04:17:48;12.90;99.90
23137;DHT22;11737;50.558;7.258;2022-12-29T04:20:15;13.00;99.90
23137;DHT22;11737;50.558;7.258;2022-12-29T04:23:03;13.00;99.90
23137;DHT22;11737;50.558;7.258;2022-12-29T04:25:31;13.00;99.90
23137;DHT22;11737;50.558;7.258;2022-12-29T04:27:59;12.90;99.90
23137;DHT22;11737;50.558;7.258;2022-12-29T04:30:27;12.90;99.90
23137;DHT22;11737;50.558;7.258;2022-12-29T04:32:54;13.00;99.90
23137;DHT22;11737;50.558;7.258;2022-12-29T04:35:22;13.00;99.90
23137;DHT22;11737;50.558;7.258;2022-12-29T04:37:49;12.90;99.90
23137;DHT22;11737;50.558;7.258;2022-12-29T04:40:17;12.90;99.90
23137;DHT22;11737;50.558;7.258;2022-12-29T04:42:44;12.90;99.90
23137;DHT22;11737;50.558;7.258;2022-12-29T04:45:12;12.80;99.90
23137;DHT22;11737;50.558;7.258;2022-12-29T04:47:39;12.80;99.90
23137;DHT22;11737;50.558;7.258;2022-12-29T04:50:07;12.90;99.90
23137;DHT22;11737;50.558;7.258;2022-12-29T04:52:35;12.90;99.90
23137;DHT22;11737;50.558;7.258;2022-12-29T04:55:04;13.00;99.90
23137;DHT22;11737;50.558;7.258;2022-12-29T04:57:32;13.10;99.90
23137;DHT22;11737;50.558;7.258;2022-12-29T04:59:59;13.20;99.90
23137;DHT22;11737;50.558;7.258;2022-12-29T05:02:27;13.10;99.90
23137;DHT22;11737;50.558;7.258;2022-12-29T05:04:54;13.10;99.90
23137;DHT22;11737;50.558;7.258;2022-12-29T05:07:22;13.00;99.90
23137;DHT22;11737;50.558;7.258;2022-12-29T05:09:49;13.00;99.90
23137;DHT22;11737;50.558;7.258;2022-12-29T05:12:17;13.00;99.90
23137;DHT22;11737;50.558;7.258;2022-12-29T05:14:44;12.90;99.90
23137;DHT22;11737;50.558;7.258;2022-12-29T05:17:12;13.00;99.90
23137;DHT22;11737;50.558;7.258;2022-12-29T05:19:39;13.00;99.90
23137;DHT22;11737;50.558;7.258;2022-12-29T05:22:07;12.90;99.90
23137;DHT22;11737;50.558;7.258;2022-12-29T05:24:34;12.80;99.90
23137;DHT22;11737;50.558;7.258;2022-12-29T05:27:01;12.80;99.90
23137;DHT22;11737;50.558;7.258;2022-12-29T05:29:29;12.90;99.90
23137;DHT22;11737;50.558;7.258;2022-12-29T05:31:56;12.80;99.90
23137;DHT22;11737;50.558;7.258;2022-12-29T05:34:24;12.80;99.90
23137;DHT22;11737;50.558;7.258;2022-12-29T05:36:51;12.80;99.90
23137;DHT22;11737;50.558;7.258;2022-12-29T05:39:19;12.80;99.90
23137;DHT22;11737;50.558;7.258;2022-12-29T05:41:46;12.90;99.90
23137;DHT22;11737;50.558;7.258;2022-12-29T05:44:14;12.80;99.90
23137;DHT22;11737;50.558;7.258;2022-12-29T05:46:42;12.80;99.90
23137;DHT22;11737;50.558;7.258;2022-12-29T05:49:09;12.70;99.90
23137;DHT22;11737;50.558;7.258;2022-12-29T05:51:37;12.70;99.90
23137;DHT22;11737;50.558;7.258;2022-12-29T05:54:04;12.70;99.90
23137;DHT22;11737;50.558;7.258;2022-12-29T05:56:32;12.70;99.90
23137;DHT22;11737;50.558;7.258;2022-12-29T05:58:59;12.80;99.90
23137;DHT22;11737;50.558;7.258;2022-12-29T06:01:27;12.80;99.90
23137;DHT22;11737;50.558;7.258;2022-12-29T06:03:54;12.80;99.90
23137;DHT22;11737;50.558;7.258;2022-12-29T06:06:22;12.80;99.90
23137;DHT22;11737;50.558;7.258;2022-12-29T06:08:49;12.80;99.90
23137;DHT22;11737;50.558;7.258;2022-12-29T06:11:17;12.70;99.90
23137;DHT22;11737;50.558;7.258;2022-12-29T06:13:44;12.70;99.90
23137;DHT22;11737;50.558;7.258;2022-12-29T06:16:11;12.70;99.90
23137;DHT22;11737;50.558;7.258;2022-12-29T06:18:39;12.80;99.90
23137;DHT22;11737;50.558;7.258;2022-12-29T06:21:06;12.90;99.90
23137;DHT22;11737;50.558;7.258;2022-12-29T06:23:34;13.00;99.90
23137;DHT22;11737;50.558;7.258;2022-12-29T06:26:01;13.00;99.90
23137;DHT22;11737;50.558;7.258;2022-12-29T06:28:29;13.00;99.90
23137;DHT22;11737;50.558;7.258;2022-12-29T06:30:56;13.00;99.90
23137;DHT22;11737;50.558;7.258;2022-12-29T06:33:24;13.00;99.90
23137;DHT22;11737;50.558;7.258;2022-12-29T06:35:52;12.90;99.90
23137;DHT22;11737;50.558;7.258;2022-12-29T06:38:19;12.80;99.90
23137;DHT22;11737;50.558;7.258;2022-12-29T06:40:47;12.80;99.90
23137;DHT22;11737;50.558;7.258;2022-12-29T06:43:14;12.80;99.90
23137;DHT22;11737;50.558;7.258;2022-12-29T06:45:42;12.80;99.90
23137;DHT22;11737;50.558;7.258;2022-12-29T06:48:10;12.70;99.90
23137;DHT22;11737;50.558;7.258;2022-12-29T06:50:37;12.80;99.90
23137;DHT22;11737;50.558;7.258;2022-12-29T06:53:05;12.90;99.90
23137;DHT22;11737;50.558;7.258;2022-12-29T06:55:33;12.90;99.90
23137;DHT22;11737;50.558;7.258;2022-12-29T06:58:00;12.60;99.90
23137;DHT22;11737;50.558;7.258;2022-12-29T07:00:27;12.60;99.90
23137;DHT22;11737;50.558;7.258;2022-12-29T07:02:55;12.70;99.90
23137;DHT22;11737;50.558;7.258;2022-12-29T07:05:26;12.90;99.90
23137;DHT22;11737;50.558;7.258;2022-12-29T07:07:54;12.90;99.90
23137;DHT22;11737;50.558;7.258;2022-12-29T07:10:41;12.90;99.90
23137;DHT22;11737;50.558;7.258;2022-12-29T07:13:09;12.90;99.90
23137;DHT22;11737;50.558;7.258;2022-12-29T07:15:37;12.90;99.90
23137;DHT22;11737;50.558;7.258;2022-12-29T07:18:04;13.00;99.90
23137;DHT22;11737;50.558;7.258;2022-12-29T07:20:32;13.00;99.90
23137;DHT22;11737;50.558;7.258;2022-12-29T07:22:59;13.00;99.90
23137;DHT22;11737;50.558;7.258;2022-12-29T07:25:27;13.00;99.90
23137;DHT22;11737;50.558;7.258;2022-12-29T07:27:55;13.00;99.90
23137;DHT22;11737;50.558;7.258;2022-12-29T07:30:23;13.10;99.90
23137;DHT22;11737;50.558;7.258;2022-12-29T07:32:51;13.00;99.90
23137;DHT22;11737;50.558;7.258;2022-12-29T07:35:18;13.10;99.90
23137;DHT22;11737;50.558;7.258;2022-12-29T07:37:46;13.10;99.90
23137;DHT22;11737;50.558;7.258;2022-12-29T07:40:13;13.00;99.90
23137;DHT22;11737;50.558;7.258;2022-12-29T07:42:41;13.10;99.90
23137;DHT22;11737;50.558;7.258;2022-12-29T07:45:09;13.10;99.90
23137;DHT22;11737;50.558;7.258;2022-12-29T07:47:36;13.10;99.90
23137;DHT22;11737;50.558;7.258;2022-12-29T07:50:05;13.10;99.90
23137;DHT22;11737;50.558;7.258;2022-12-29T07:52:32;13.10;99.90
23137;DHT22;11737;50.558;7.258;2022-12-29T07:55:00;13.10;99.90
23137;DHT22;11737;50.558;7.258;2022-12-29T07:57:27;13.00;99.90
23137;DHT22;11737;50.558;7.258;2022-12-29T07:59:55;13.00;99.90
23137;DHT22;11737;50.558;7.258;2022-12-29T08:02:22;13.00;99.90
23137;DHT22;11737;50.558;7.258;2022-12-29T08:04:51;12.90;99.90
23137;DHT22;11737;50.558;7.258;2022-12-29T08:07:19;13.00;99.90
23137;DHT22;11737;50.558;7.258;2022-12-29T08:09:46;13.00;99.90
23137;DHT22;11737;50.558;7.258;2022-12-29T08:12:14;13.00;99.90
23137;DHT22;11737;50.558;7.258;2022-12-29T08:14:41;12.90;99.90
23137;DHT22;11737;50.558;7.258;2022-12-29T08:17:09;12.90;99.90
23137;DHT22;11737;50.558;7.258;2022-12-29T08:19:37;13.00;99.90
23137;DHT22;11737;50.558;7.258;2022-12-29T08:22:04;13.10;99.90
23137;DHT22;11737;50.558;7.258;2022-12-29T08:24:32;13.10;99.90
23137;DHT22;11737;50.558;7.258;2022-12-29T08:26:59;13.00;99.90
23137;DHT22;11737;50.558;7.258;2022-12-29T08:29:27;12.90;99.90
23137;DHT22;11737;50.558;7.258;2022-12-29T08:31:54;12.90;99.90
23137;DHT22;11737;50.558;7.258;2022-12-29T08:34:22;12.80;99.90
23137;DHT22;11737;50.558;7.258;2022-12-29T08:36:49;12.90;99.90
23137;DHT22;11737;50.558;7.258;2022-12-29T08:39:17;12.90;99.90
23137;DHT22;11737;50.558;7.258;2022-12-29T08:41:44;12.90;99.90
23137;DHT22;11737;50.558;7.258;2022-12-29T08:44:12;13.00;99.90
23137;DHT22;11737;50.558;7.258;2022-12-29T08:46:39;13.00;99.90
23137;DHT22;11737;50.558;7.258;2022-12-29T08:49:07;13.10;99.90
23137;DHT22;11737;50.558;7.258;2022-12-29T08:51:34;13.10;99.90
23137;DHT22;11737;50.558;7.258;2022-12-29T08:54:02;13.20;99.90
23137;DHT22;11737;50.558;7.258;2022-12-29T08:56:29;13.20;99.90
23137;DHT22;11737;50.558;7.258;2022-12-29T08:58:57;13.40;99.90
23137;DHT22;11737;50.558;7.258;2022-12-29T09:01:24;13.40;99.90
23137;DHT22;11737;50.558;7.258;2022-12-29T09:03:53;13.30;99.90
23137;DHT22;11737;50.558;7.258;2022-12-29T09:06:21;13.40;99.90
23137;DHT22;11737;50.558;7.258;2022-12-29T09:08:49;13.40;99.90
23137;DHT22;11737;50.558;7.258;2022-12-29T09:11:19;13.50;99.90
23137;DHT22;11737;50.558;7.258;2022-12-29T09:13:47;13.50;99.90
23137;DHT22;11737;50.558;7.258;2022-12-29T09:19:03;13.50;99.90
23137;DHT22;11737;50.558;7.258;2022-12-29T09:21:31;13.40;99.90
23137;DHT22;11737;50.558;7.258;2022-12-29T09:23:59;13.50;99.90
23137;DHT22;11737;50.558;7.258;2022-12-29T09:26:26;13.50;99.90
23137;DHT22;11737;50.558;7.258;2022-12-29T09:28:54;13.50;99.90
23137;DHT22;11737;50.558;7.258;2022-12-29T09:31:21;13.50;99.90
23137;DHT22;11737;50.558;7.258;2022-12-29T09:33:49;13.40;99.90
23137;DHT22;11737;50.558;7.258;2022-12-29T09:36:16;13.40;99.90
23137;DHT22;11737;50.558;7.258;2022-12-29T09:38:44;13.30;99.90
23137;DHT22;11737;50.558;7.258;2022-12-29T09:41:14;13.30;99.90
23137;DHT22;11737;50.558;7.258;2022-12-29T09:52:14;13.20;99.90
23137;DHT22;11737;50.558;7.258;2022-12-29T09:55:00;13.40;99.90
23137;DHT22;11737;50.558;7.258;2022-12-29T09:57:56;13.40;99.90
23137;DHT22;11737;50.558;7.258;2022-12-29T10:03:19;13.60;99.90
23137;DHT22;11737;50.558;7.258;2022-12-29T10:06:04;13.80;99.90
23137;DHT22;11737;50.558;7.258;2022-12-29T10:14:35;13.90;99.90
23137;DHT22;11737;50.558;7.258;2022-12-29T10:23:05;14.20;99.90
23137;DHT22;11737;50.558;7.258;2022-12-29T10:25:53;14.20;99.90
23137;DHT22;11737;50.558;7.258;2022-12-29T10:34:03;14.40;99.90
23137;DHT22;11737;50.558;7.258;2022-12-29T10:36:38;14.40;99.90
23137;DHT22;11737;50.558;7.258;2022-12-29T10:41:56;14.40;99.90
23137;DHT22;11737;50.558;7.258;2022-12-29T10:44:26;14.40;99.90
23137;DHT22;11737;50.558;7.258;2022-12-29T10:49:45;14.40;99.90
23137;DHT22;11737;50.558;7.258;2022-12-29T10:52:15;14.40;99.90
23137;DHT22;11737;50.558;7.258;2022-12-29T10:54:56;14.30;99.90
23137;DHT22;11737;50.558;7.258;2022-12-29T10:57:41;14.30;99.90
23137;DHT22;11737;50.558;7.258;2022-12-29T11:06:08;14.50;99.90
23137;DHT22;11737;50.558;7.258;2022-12-29T11:08:38;14.50;99.90
23137;DHT22;11737;50.558;7.258;2022-12-29T11:11:08;14.70;99.90
23137;DHT22;11737;50.558;7.258;2022-12-29T11:13:48;14.80;99.90
23137;DHT22;11737;50.558;7.258;2022-12-29T11:16:26;14.90;99.90
23137;DHT22;11737;50.558;7.258;2022-12-29T11:18:46;15.10;99.90
23137;DHT22;11737;50.558;7.258;2022-12-29T11:21:30;15.20;99.90
23137;DHT22;11737;50.558;7.258;2022-12-29T11:24:04;15.30;99.90
23137;DHT22;11737;50.558;7.258;2022-12-29T11:26:28;15.30;99.90
23137;DHT22;11737;50.558;7.258;2022-12-29T11:31:47;15.30;99.90
23137;DHT22;11737;50.558;7.258;2022-12-29T11:34:24;15.30;99.90
23137;DHT22;11737;50.558;7.258;2022-12-29T11:36:54;15.20;99.90
23137;DHT22;11737;50.558;7.258;2022-12-29T11:39:44;15.30;99.90
23137;DHT22;11737;50.558;7.258;2022-12-29T11:42:32;15.20;99.90
23137;DHT22;11737;50.558;7.258;2022-12-29T11:44:46;15.30;99.90
23137;DHT22;11737;50.558;7.258;2022-12-29T11:47:23;15.20;99.90
23137;DHT22;11737;50.558;7.258;2022-12-29T11:52:43;15.20;99.90
23137;DHT22;11737;50.558;7.258;2022-12-29T11:55:18;15.20;99.90
23137;DHT22;11737;50.558;7.258;2022-12-29T11:57:47;15.10;99.90
23137;DHT22;11737;50.558;7.258;2022-12-29T12:00:22;15.10;99.90
23137;DHT22;11737;50.558;7.258;2022-12-29T12:03:00;15.00;99.90
23137;DHT22;11737;50.558;7.258;2022-12-29T12:08:07;15.00;99.90
23137;DHT22;11737;50.558;7.258;2022-12-29T12:10:46;15.00;99.90
23137;DHT22;11737;50.558;7.258;2022-12-29T12:13:17;15.00;99.90
23137;DHT22;11737;50.558;7.258;2022-12-29T12:16:21;14.90;99.90
23137;DHT22;11737;50.558;7.258;2022-12-29T12:21:10;15.00;99.90
23137;DHT22;11737;50.558;7.258;2022-12-29T12:24:16;15.00;99.90
23137;DHT22;11737;50.558;7.258;2022-12-29T12:26:12;15.10;99.90
23137;DHT22;11737;50.558;7.258;2022-12-29T12:28:48;15.20;99.90
23137;DHT22;11737;50.558;7.258;2022-12-29T12:31:22;15.20;99.90
23137;DHT22;11737;50.558;7.258;2022-12-29T12:33:47;15.10;99.90
23137;DHT22;11737;50.558;7.258;2022-12-29T12:36:27;15.10;99.90
23137;DHT22;11737;50.558;7.258;2022-12-29T12:53:26;15.30;99.90
23137;DHT22;11737;50.558;7.258;2022-12-29T13:05:33;15.00;99.90
23137;DHT22;11737;50.558;7.258;2022-12-29T13:13:32;15.00;99.90
23137;DHT22;11737;50.558;7.258;2022-12-29T13:16:21;14.90;99.90
23137;DHT22;11737;50.558;7.258;2022-12-29T13:19:11;14.90;99.90
23137;DHT22;11737;50.558;7.258;2022-12-29T13:21:52;15.00;99.90
23137;DHT22;11737;50.558;7.258;2022-12-29T13:24:36;15.00;99.90
23137;DHT22;11737;50.558;7.258;2022-12-29T13:27:16;14.90;99.90
23137;DHT22;11737;50.558;7.258;2022-12-29T13:29:46;14.80;99.90
23137;DHT22;11737;50.558;7.258;2022-12-29T13:32:43;14.80;99.90
23137;DHT22;11737;50.558;7.258;2022-12-29T13:38:01;14.70;99.90
23137;DHT22;11737;50.558;7.258;2022-12-29T13:40:32;14.70;99.90
23137;DHT22;11737;50.558;7.258;2022-12-29T13:43:01;14.70;99.90
23137;DHT22;11737;50.558;7.258;2022-12-29T13:45:31;14.70;99.90
23137;DHT22;11737;50.558;7.258;2022-12-29T13:48:13;14.60;99.90
23137;DHT22;11737;50.558;7.258;2022-12-29T13:50:40;14.70;99.90
23137;DHT22;11737;50.558;7.258;2022-12-29T14:04:24;14.60;99.90
23137;DHT22;11737;50.558;7.258;2022-12-29T14:07:16;14.60;99.90
23137;DHT22;11737;50.558;7.258;2022-12-29T14:12:43;14.60;99.90
23137;DHT22;11737;50.558;7.258;2022-12-29T14:17:42;14.70;99.90
23137;DHT22;11737;50.558;7.258;2022-12-29T14:20:17;14.70;99.90
23137;DHT22;11737;50.558;7.258;2022-12-29T14:28:45;14.80;99.90
23137;DHT22;11737;50.558;7.258;2022-12-29T14:36:39;14.70;99.90
23137;DHT22;11737;50.558;7.258;2022-12-29T14:39:33;14.60;99.90
23137;DHT22;11737;50.558;7.258;2022-12-29T14:44:52;14.30;99.90
23137;DHT22;11737;50.558;7.258;2022-12-29T14:47:34;14.10;99.90
23137;DHT22;11737;50.558;7.258;2022-12-29T14:53:01;13.70;99.90
23137;DHT22;11737;50.558;7.258;2022-12-29T14:55:47;13.60;99.90
23137;DHT22;11737;50.558;7.258;2022-12-29T14:58:30;13.40;99.90
23137;DHT22;11737;50.558;7.258;2022-12-29T15:00:59;13.30;99.90
23137;DHT22;11737;50.558;7.258;2022-12-29T15:03:32;13.20;99.90
23137;DHT22;11737;50.558;7.258;2022-12-29T15:08:59;13.00;99.90
23137;DHT22;11737;50.558;7.258;2022-12-29T15:12:11;12.90;99.90
23137;DHT22;11737;50.558;7.258;2022-12-29T15:13:54;12.80;99.90
23137;DHT22;11737;50.558;7.258;2022-12-29T15:16:33;12.90;99.90
23137;DHT22;11737;50.558;7.258;2022-12-29T15:19:02;12.90;99.90
23137;DHT22;11737;50.558;7.258;2022-12-29T15:21:34;13.00;99.90
23137;DHT22;11737;50.558;7.258;2022-12-29T15:24:03;12.90;99.90
23137;DHT22;11737;50.558;7.258;2022-12-29T15:26:45;12.90;99.90
23137;DHT22;11737;50.558;7.258;2022-12-29T15:29:33;12.80;99.90
23137;DHT22;11737;50.558;7.258;2022-12-29T15:32:09;12.80;99.90
23137;DHT22;11737;50.558;7.258;2022-12-29T15:34:31;12.80;99.90
23137;DHT22;11737;50.558;7.258;2022-12-29T15:36:58;12.80;99.90
23137;DHT22;11737;50.558;7.258;2022-12-29T15:39:30;12.80;99.90
23137;DHT22;11737;50.558;7.258;2022-12-29T15:42:29;12.80;99.90
23137;DHT22;11737;50.558;7.258;2022-12-29T15:44:56;12.80;99.90
23137;DHT22;11737;50.558;7.258;2022-12-29T15:47:25;12.60;99.90
23137;DHT22;11737;50.558;7.258;2022-12-29T15:50:13;12.60;99.90
23137;DHT22;11737;50.558;7.258;2022-12-29T15:52:35;12.60;99.90
23137;DHT22;11737;50.558;7.258;2022-12-29T15:55:05;12.60;99.90
23137;DHT22;11737;50.558;7.258;2022-12-29T15:57:42;12.60;99.90
23137;DHT22;11737;50.558;7.258;2022-12-29T16:00:25;12.70;99.90
23137;DHT22;11737;50.558;7.258;2022-12-29T16:02:54;12.80;99.90
23137;DHT22;11737;50.558;7.258;2022-12-29T16:05:22;12.70;99.90
23137;DHT22;11737;50.558;7.258;2022-12-29T16:07:55;12.80;99.90
23137;DHT22;11737;50.558;7.258;2022-12-29T16:10:31;12.80;99.90
23137;DHT22;11737;50.558;7.258;2022-12-29T16:13:01;12.90;99.90
23137;DHT22;11737;50.558;7.258;2022-12-29T16:15:24;12.90;99.90
23137;DHT22;11737;50.558;7.258;2022-12-29T16:17:53;12.80;99.90
23137;DHT22;11737;50.558;7.258;2022-12-29T16:20:31;12.60;99.90
23137;DHT22;11737;50.558;7.258;2022-12-29T16:22:56;12.50;99.90
23137;DHT22;11737;50.558;7.258;2022-12-29T16:25:29;12.40;99.90
23137;DHT22;11737;50.558;7.258;2022-12-29T16:27:59;12.20;99.90
23137;DHT22;11737;50.558;7.258;2022-12-29T16:30:30;11.90;99.90
23137;DHT22;11737;50.558;7.258;2022-12-29T16:33:03;11.90;99.90
23137;DHT22;11737;50.558;7.258;2022-12-29T16:35:46;11.70;99.90
23137;DHT22;11737;50.558;7.258;2022-12-29T16:38:33;11.60;99.90
23137;DHT22;11737;50.558;7.258;2022-12-29T16:41:02;11.40;99.90
23137;DHT22;11737;50.558;7.258;2022-12-29T16:43:35;11.20;99.90
23137;DHT22;11737;50.558;7.258;2022-12-29T16:48:49;11.20;99.90
23137;DHT22;11737;50.558;7.258;2022-12-29T16:51:29;11.30;99.90
23137;DHT22;11737;50.558;7.258;2022-12-29T16:53:58;11.30;99.90
23137;DHT22;11737;50.558;7.258;2022-12-29T16:56:33;11.30;99.90
23137;DHT22;11737;50.558;7.258;2022-12-29T17:01:44;11.30;99.90
23137;DHT22;11737;50.558;7.258;2022-12-29T17:04:12;11.20;99.90
23137;DHT22;11737;50.558;7.258;2022-12-29T17:06:41;11.00;99.90
23137;DHT22;11737;50.558;7.258;2022-12-29T17:09:23;10.80;99.90
23137;DHT22;11737;50.558;7.258;2022-12-29T17:11:52;10.80;99.90
23137;DHT22;11737;50.558;7.258;2022-12-29T17:14:40;10.70;99.90
23137;DHT22;11737;50.558;7.258;2022-12-29T17:17:17;10.70;99.90
23137;DHT22;11737;50.558;7.258;2022-12-29T17:19:47;10.70;99.90
23137;DHT22;11737;50.558;7.258;2022-12-29T17:25:06;10.60;99.90
23137;DHT22;11737;50.558;7.258;2022-12-29T17:30:13;10.50;99.90
23137;DHT22;11737;50.558;7.258;2022-12-29T17:32:42;10.40;99.90
23137;DHT22;11737;50.558;7.258;2022-12-29T17:35:18;10.30;99.90
23137;DHT22;11737;50.558;7.258;2022-12-29T17:37:46;10.30;99.90
23137;DHT22;11737;50.558;7.258;2022-12-29T17:40:16;10.30;99.90
23137;DHT22;11737;50.558;7.258;2022-12-29T17:42:47;10.30;99.90
23137;DHT22;11737;50.558;7.258;2022-12-29T17:45:19;10.20;99.90
23137;DHT22;11737;50.558;7.258;2022-12-29T17:47:48;10.10;99.90
23137;DHT22;11737;50.558;7.258;2022-12-29T17:50:18;10.00;99.90
23137;DHT22;11737;50.558;7.258;2022-12-29T17:52:51;9.90;99.90
23137;DHT22;11737;50.558;7.258;2022-12-29T17:55:22;9.80;99.90
23137;DHT22;11737;50.558;7.258;2022-12-29T17:57:50;9.90;99.90
23137;DHT22;11737;50.558;7.258;2022-12-29T18:00:26;9.90;99.90
23137;DHT22;11737;50.558;7.258;2022-12-29T18:03:20;9.90;99.90
23137;DHT22;11737;50.558;7.258;2022-12-29T18:05:46;9.80;99.90
23137;DHT22;11737;50.558;7.258;2022-12-29T18:08:15;9.80;99.90
23137;DHT22;11737;50.558;7.258;2022-12-29T18:10:43;9.80;99.90
23137;DHT22;11737;50.558;7.258;2022-12-29T18:13:22;9.70;99.90
23137;DHT22;11737;50.558;7.258;2022-12-29T18:15:52;9.80;99.90
23137;DHT22;11737;50.558;7.258;2022-12-29T18:18:24;9.80;99.90
23137;DHT22;11737;50.558;7.258;2022-12-29T18:20:54;9.70;99.90
23137;DHT22;11737;50.558;7.258;2022-12-29T18:23:25;9.60;99.90
23137;DHT22;11737;50.558;7.258;2022-12-29T18:25:58;9.50;99.90
23137;DHT22;11737;50.558;7.258;2022-12-29T18:28:27;9.40;99.90
23137;DHT22;11737;50.558;7.258;2022-12-29T18:30:57;9.30;99.90
23137;DHT22;11737;50.558;7.258;2022-12-29T18:33:24;9.30;99.90
23137;DHT22;11737;50.558;7.258;2022-12-29T18:35:56;9.30;99.90
23137;DHT22;11737;50.558;7.258;2022-12-29T18:38:23;9.30;99.90
23137;DHT22;11737;50.558;7.258;2022-12-29T18:43:39;9.20;99.90
23137;DHT22;11737;50.558;7.258;2022-12-29T18:46:07;9.20;99.90
23137;DHT22;11737;50.558;7.258;2022-12-29T18:48:34;9.30;99.90
23137;DHT22;11737;50.558;7.258;2022-12-29T18:51:02;9.40;99.90
23137;DHT22;11737;50.558;7.258;2022-12-29T18:53:29;9.50;99.90
23137;DHT22;11737;50.558;7.258;2022-12-29T18:55:58;9.50;99.90
23137;DHT22;11737;50.558;7.258;2022-12-29T18:58:26;9.50;99.90
23137;DHT22;11737;50.558;7.258;2022-12-29T19:00:53;9.40;99.90